Time;durP1;ratioP1;P1;durP2;ratioP2;P2;SDS_P1;SDS_P2;PMS_P1;PMS_P2;Temp;Humidity;BMP_temperature;BMP_pressure;BME280_temperature;BME280_humidity;BME280_pressure;Samples;Min_cycle;Max_cycle;Signal;HPM_P1;HPM_P2
2024/03/03 00:00:01;;;;;;;16.00;10.43;;;;;;;5.36;96.48;99576.47;5045675;28;20210;-80
2024/03/03 00:02:27;;;;;;;15.83;10.70;;;;;;;5.33;96.86;99574.00;5048760;28;20203;-79
2024/03/03 00:04:54;;;;;;;17.87;11.03;;;;;;;5.33;96.78;99581.94;5049034;28;20224;-78
2024/03/03 00:07:20;;;;;;;16.47;11.23;;;;;;;5.30;97.02;99568.91;5047916;28;20646;-80
2024/03/03 00:09:47;;;;;;;16.17;11.30;;;;;;;5.29;97.07;99577.75;5049766;28;20460;-79
2024/03/03 00:12:13;;;;;;;19.83;12.13;;;;;;;5.28;97.24;99583.13;5048307;28;20217;-78
2024/03/03 00:14:40;;;;;;;18.43;12.13;;;;;;;5.26;97.62;99582.38;5048615;28;21007;-79
2024/03/03 00:17:08;;;;;;;16.57;11.23;;;;;;;5.26;97.66;99585.88;5049862;28;20245;-80
2024/03/03 00:19:34;;;;;;;16.90;10.93;;;;;;;5.24;97.78;99582.47;5046156;28;20212;-80
2024/03/03 00:22:01;;;;;;;17.20;10.93;;;;;;;5.19;97.53;99574.84;5047725;28;20206;-79
2024/03/03 00:24:27;;;;;;;14.50;10.93;;;;;;;5.16;97.27;99575.00;5046358;28;20232;-78
2024/03/03 00:26:53;;;;;;;12.70;9.43;;;;;;;5.10;97.25;99570.06;5049966;28;20205;-79
2024/03/03 00:29:20;;;;;;;12.47;9.30;;;;;;;5.04;97.29;99565.13;5052801;28;20201;-80
2024/03/03 00:31:47;;;;;;;15.60;9.30;;;;;;;5.01;97.62;99575.91;5051227;28;20225;-79
2024/03/03 00:34:14;;;;;;;18.60;12.33;;;;;;;4.98;97.89;99575.22;5057718;28;20235;-79
2024/03/03 00:36:41;;;;;;;17.13;11.27;;;;;;;4.96;97.92;99577.94;5055095;28;20213;-79
2024/03/03 00:39:08;;;;;;;15.90;11.20;;;;;;;4.96;98.51;99577.09;5058895;28;20283;-79
2024/03/03 00:41:34;;;;;;;18.17;11.77;;;;;;;4.94;98.42;99573.69;5052043;28;20202;-80
2024/03/03 00:44:01;;;;;;;18.77;10.97;;;;;;;4.92;98.64;99570.28;5057312;28;20221;-79
2024/03/03 00:46:27;;;;;;;16.70;11.50;;;;;;;4.91;98.64;99573.84;5053928;28;20204;-79
2024/03/03 00:48:54;;;;;;;15.60;11.30;;;;;;;4.89;99.16;99576.56;5056896;28;20205;-80
2024/03/03 00:51:21;;;;;;;19.47;12.03;;;;;;;4.87;99.40;99574.03;5050393;28;20237;-79
2024/03/03 00:53:48;;;;;;;19.07;12.63;;;;;;;4.86;99.32;99576.75;5052204;28;20271;-79
2024/03/03 00:56:15;;;;;;;21.43;13.10;;;;;;;4.84;99.73;99570.69;5045012;28;20208;-79
2024/03/03 00:58:41;;;;;;;19.57;12.37;;;;;;;4.82;100.00;99570.81;5051533;28;20205;-80
2024/03/03 01:01:08;;;;;;;19.43;12.37;;;;;;;4.82;100.00;99568.19;5053623;28;20209;-79
2024/03/03 01:03:39;;;;;;;21.60;13.53;;;;;;;4.81;100.00;99568.28;5050688;28;20697;-80
2024/03/03 01:06:05;;;;;;;20.17;12.97;;;;;;;4.79;100.00;99564.88;5054142;28;20202;-79
2024/03/03 01:08:33;;;;;;;21.20;13.40;;;;;;;4.78;100.00;99568.44;5050267;28;20202;-79
2024/03/03 01:10:59;;;;;;;21.10;13.37;;;;;;;4.78;100.00;99555.25;5054134;28;20216;-79
2024/03/03 01:13:26;;;;;;;24.43;13.93;;;;;;;4.78;100.00;99557.88;5058469;28;20218;-79
2024/03/03 01:15:52;;;;;;;22.17;13.27;;;;;;;4.77;100.00;99558.81;5050931;28;20209;-80
2024/03/03 01:18:19;;;;;;;22.80;13.30;;;;;;;4.77;100.00;99558.81;5053511;28;20761;-79
2024/03/03 01:20:45;;;;;;;19.17;13.37;;;;;;;4.76;100.00;99560.59;5052311;28;20206;-79
2024/03/03 01:23:12;;;;;;;23.47;14.43;;;;;;;4.76;100.00;99557.97;5051130;28;20638;-79
2024/03/03 01:25:40;;;;;;;21.90;14.60;;;;;;;4.75;100.00;99569.47;5051379;28;20576;-79
2024/03/03 01:28:07;;;;;;;20.50;13.50;;;;;;;4.75;100.00;99569.47;5055279;28;20621;-78
2024/03/03 01:30:34;;;;;;;23.47;14.13;;;;;;;4.75;100.00;99571.25;5050701;28;20213;-80
2024/03/03 01:33:00;;;;;;;26.03;15.50;;;;;;;4.75;100.00;99565.97;5049728;28;20217;-79
2024/03/03 01:35:28;;;;;;;27.07;15.07;;;;;;;4.75;100.00;99555.41;5041014;28;20210;-79
2024/03/03 01:37:55;;;;;;;27.77;16.27;;;;;;;4.77;100.00;99553.53;5053147;28;20676;-79
2024/03/03 01:40:21;;;;;;;26.03;15.43;;;;;;;4.79;100.00;99549.03;5050907;28;20753;-80
2024/03/03 01:42:55;;;;;;;21.50;14.53;;;;;;;4.78;100.00;99542.91;5050797;28;20684;-79
2024/03/03 01:45:22;;;;;;;20.83;13.90;;;;;;;4.71;100.00;99541.53;5053055;28;20206;-79
2024/03/03 01:47:50;;;;;;;25.50;15.27;;;;;;;4.66;100.00;99548.84;5050911;28;20210;-80
2024/03/03 01:50:17;;;;;;;25.67;15.27;;;;;;;4.62;100.00;99550.00;5050218;28;20213;-80
2024/03/03 01:52:44;;;;;;;21.97;14.53;;;;;;;4.59;100.00;99547.53;5050848;28;20233;-79
2024/03/03 01:55:12;;;;;;;30.43;16.67;;;;;;;4.58;100.00;99551.09;5053691;28;20587;-79
2024/03/03 01:57:39;;;;;;;26.50;17.03;;;;;;;4.58;100.00;99545.81;5048605;28;20628;-79
2024/03/03 02:00:10;;;;;;;26.40;15.77;;;;;;;4.57;100.00;99552.03;5053252;28;20231;-79
2024/03/03 02:02:37;;;;;;;27.10;16.57;;;;;;;4.56;100.00;99547.69;5046475;28;20815;-79
2024/03/03 02:05:04;;;;;;;29.70;17.27;;;;;;;4.56;100.00;99541.56;5045494;28;20723;-79
2024/03/03 02:07:33;;;;;;;30.90;16.90;;;;;;;4.59;100.00;99547.53;5046610;28;20251;-79
2024/03/03 02:10:00;;;;;;;31.17;16.90;;;;;;;4.60;100.00;99553.66;5049530;28;20610;-78
2024/03/03 02:12:28;;;;;;;26.10;15.60;;;;;;;4.52;100.00;99546.16;5046646;28;20580;-79
2024/03/03 02:14:54;;;;;;;25.03;14.87;;;;;;;4.46;100.00;99543.88;5051935;28;20259;-79
2024/03/03 02:17:22;;;;;;;26.47;15.83;;;;;;;4.41;100.00;99548.56;5047374;28;20567;-80
2024/03/03 02:19:49;;;;;;;26.97;15.40;;;;;;;4.35;100.00;99552.38;5059947;28;20205;-80
2024/03/03 02:22:17;;;;;;;24.77;15.07;;;;;;;4.32;100.00;99544.63;5052081;28;20568;-79
2024/03/03 02:24:43;;;;;;;23.67;14.40;;;;;;;4.29;100.00;99549.25;5054325;28;20237;-80
2024/03/03 02:27:10;;;;;;;27.67;15.70;;;;;;;4.26;100.00;99558.16;5049688;28;20213;-80
2024/03/03 02:29:36;;;;;;;23.53;15.17;;;;;;;4.26;100.00;99559.94;5046239;28;20607;-80
2024/03/03 02:32:03;;;;;;;32.77;16.87;;;;;;;4.24;100.00;99552.13;5045788;28;20739;-79
2024/03/03 02:34:30;;;;;;;26.40;17.17;;;;;;;4.25;100.00;99555.63;5050852;28;20312;-79
2024/03/03 02:36:56;;;;;;;26.07;15.93;;;;;;;4.26;100.00;99550.25;5045740;28;20213;-80
2024/03/03 02:39:24;;;;;;;26.70;15.23;;;;;;;4.23;100.00;99555.69;5054138;28;20209;-79
2024/03/03 02:41:51;;;;;;;22.07;14.03;;;;;;;4.15;100.00;99550.81;5050723;28;20205;-79
2024/03/03 02:44:17;;;;;;;23.20;14.60;;;;;;;4.07;100.00;99545.16;5052062;28;20279;-79
2024/03/03 02:46:43;;;;;;;28.37;15.83;;;;;;;4.03;100.00;99546.22;5048945;28;20204;-78
2024/03/03 02:49:10;;;;;;;25.00;15.87;;;;;;;4.01;100.00;99534.91;5051039;28;20204;-79
2024/03/03 02:51:37;;;;;;;27.73;15.77;;;;;;;3.99;100.00;99536.78;5050352;28;20210;-79
2024/03/03 02:54:03;;;;;;;26.13;15.50;;;;;;;3.99;100.00;99535.94;5043296;28;20229;-79
2024/03/03 02:56:31;;;;;;;25.93;15.63;;;;;;;3.95;100.00;99540.50;5049007;28;20224;-79
2024/03/03 02:58:58;;;;;;;24.83;15.30;;;;;;;3.93;100.00;99531.88;5051759;28;20293;-79
2024/03/03 03:01:24;;;;;;;22.57;14.97;;;;;;;3.94;100.00;99538.00;5047932;28;20214;-80
2024/03/03 03:03:51;;;;;;;26.13;16.30;;;;;;;3.93;100.00;99537.13;5049766;28;20221;-79
2024/03/03 03:06:17;;;;;;;31.50;17.07;;;;;;;3.93;100.00;99528.38;5049824;28;20206;-79
2024/03/03 03:08:44;;;;;;;32.20;18.33;;;;;;;3.94;100.00;99535.34;5047714;28;20718;-80
2024/03/03 03:11:10;;;;;;;33.80;17.60;;;;;;;3.96;100.00;99536.09;5047057;28;20216;-80
2024/03/03 03:13:38;;;;;;;29.07;17.50;;;;;;;3.97;100.00;99543.06;5051141;28;20445;-79
2024/03/03 03:16:05;;;;;;;30.67;17.63;;;;;;;3.97;100.00;99538.66;5049578;28;20202;-80
2024/03/03 03:18:32;;;;;;;29.03;17.23;;;;;;;3.97;100.00;99540.44;5045595;28;20202;-79
2024/03/03 03:20:58;;;;;;;26.77;15.03;;;;;;;3.96;100.00;99539.59;5047229;28;20206;-79
2024/03/03 03:23:25;;;;;;;28.53;16.50;;;;;;;3.96;100.00;99551.91;5050753;28;20226;-79
2024/03/03 03:25:51;;;;;;;26.47;16.17;;;;;;;3.95;100.00;99551.06;5043451;28;20662;-78
2024/03/03 03:28:18;;;;;;;29.77;16.53;;;;;;;3.94;100.00;99549.34;5045599;28;20205;-80
2024/03/03 03:30:46;;;;;;;26.27;15.43;;;;;;;3.91;100.00;99560.06;5049761;28;20205;-79
2024/03/03 03:33:13;;;;;;;23.13;15.27;;;;;;;3.87;100.00;99569.06;5051239;28;20226;-78
2024/03/03 03:35:39;;;;;;;28.33;16.97;;;;;;;3.86;100.00;99571.78;5044773;28;20259;-79
2024/03/03 03:38:06;;;;;;;26.87;16.30;;;;;;;3.83;100.00;99564.88;5047358;28;20267;-79
2024/03/03 03:40:32;;;;;;;21.60;13.50;;;;;;;3.85;100.00;99560.38;5043592;28;20205;-79
2024/03/03 03:42:59;;;;;;;22.03;13.67;;;;;;;3.72;100.00;99554.09;5049753;28;20212;-79
2024/03/03 03:45:25;;;;;;;21.67;14.07;;;;;;;3.58;100.00;99556.59;5047455;28;20209;-80
2024/03/03 03:47:53;;;;;;;25.73;14.90;;;;;;;3.50;100.00;99556.97;5045796;28;20650;-79
2024/03/03 03:50:19;;;;;;;21.87;14.40;;;;;;;3.45;100.00;99554.56;5053214;28;20653;-79
2024/03/03 03:52:46;;;;;;;25.97;14.90;;;;;;;3.43;100.00;99559.06;5041803;28;20698;-79
2024/03/03 03:55:12;;;;;;;24.70;15.00;;;;;;;3.41;100.00;99558.28;5047414;28;20819;-80
2024/03/03 03:57:39;;;;;;;23.27;14.40;;;;;;;3.40;100.00;99553.13;5051831;28;20217;-79
2024/03/03 04:00:08;;;;;;;25.03;15.47;;;;;;;3.39;100.00;99549.66;5049486;28;20210;-79
2024/03/03 04:02:34;;;;;;;28.10;15.23;;;;;;;3.39;100.00;99554.91;5051171;28;20197;-79
2024/03/03 04:05:04;;;;;;;24.37;15.20;;;;;;;3.37;100.00;99554.13;5046183;28;20221;-79
2024/03/03 04:07:32;;;;;;;20.20;14.40;;;;;;;3.34;100.00;99553.44;5051423;28;20197;-79
2024/03/03 04:09:59;;;;;;;20.07;13.93;;;;;;;3.28;100.00;99553.72;5047877;28;20209;-80
2024/03/03 04:12:25;;;;;;;26.90;16.30;;;;;;;3.25;100.00;99551.25;5049120;28;20283;-79
2024/03/03 04:14:52;;;;;;;25.57;15.67;;;;;;;3.23;100.00;99546.06;5042799;28;20226;-78
2024/03/03 04:17:18;;;;;;;25.03;15.83;;;;;;;3.23;100.00;99546.06;5046706;28;20213;-80
2024/03/03 04:19:45;;;;;;;25.87;15.83;;;;;;;3.23;100.00;99551.34;5047904;28;20217;-79
2024/03/03 04:22:12;;;;;;;25.80;16.03;;;;;;;3.21;100.00;99542.69;5046279;28;20205;-79
2024/03/03 04:24:39;;;;;;;26.60;16.00;;;;;;;3.20;100.00;99550.66;5047832;28;20689;-79
2024/03/03 04:27:06;;;;;;;28.37;17.00;;;;;;;3.19;100.00;99549.81;5051749;28;20206;-79
2024/03/03 04:29:32;;;;;;;30.03;18.07;;;;;;;3.20;100.00;99550.66;5043074;28;20205;-79
2024/03/03 04:31:59;;;;;;;31.43;17.80;;;;;;;3.20;100.00;99553.28;5046528;28;20201;-79
2024/03/03 04:34:26;;;;;;;30.93;18.23;;;;;;;3.20;100.00;99543.63;5049269;28;20230;-80
2024/03/03 04:36:52;;;;;;;38.07;21.03;;;;;;;3.21;100.00;99547.09;5049309;28;20632;-79
2024/03/03 04:39:20;;;;;;;37.27;21.23;;;;;;;3.21;100.00;99547.94;5049499;28;20587;-79
2024/03/03 04:41:47;;;;;;;40.33;22.50;;;;;;;3.22;100.00;99547.03;5042840;28;20267;-80
2024/03/03 04:44:13;;;;;;;44.77;23.27;;;;;;;3.21;100.00;99544.47;5043781;28;20253;-80
2024/03/03 04:46:40;;;;;;;38.93;21.67;;;;;;;3.21;100.00;99542.69;5050165;28;20210;-80
2024/03/03 04:49:06;;;;;;;34.43;19.87;;;;;;;3.20;100.00;99541.00;5050208;28;20209;-79
2024/03/03 04:51:33;;;;;;;31.40;16.40;;;;;;;3.20;100.00;99537.50;5043827;28;20209;-79
2024/03/03 04:53:59;;;;;;;25.30;15.33;;;;;;;3.13;100.00;99539.59;5046920;28;20242;-79
2024/03/03 04:56:28;;;;;;;25.37;15.83;;;;;;;3.08;100.00;99545.06;5046862;28;20216;-79
2024/03/03 04:58:55;;;;;;;28.03;16.50;;;;;;;3.06;100.00;99538.19;5045663;28;20294;-79
2024/03/03 05:01:22;;;;;;;20.40;13.40;;;;;;;3.04;100.00;99537.44;5054460;28;20210;-80
2024/03/03 05:03:48;;;;;;;20.27;13.47;;;;;;;2.89;100.00;99544.28;5046541;28;20230;-79
2024/03/03 05:06:15;;;;;;;19.80;12.33;;;;;;;2.78;100.00;99557.97;5046215;28;20646;-79
2024/03/03 05:08:41;;;;;;;19.60;13.03;;;;;;;2.72;100.00;99550.38;5060839;28;20205;-79
2024/03/03 05:11:08;;;;;;;19.43;13.30;;;;;;;2.69;100.00;99554.91;5054677;28;20213;-80
2024/03/03 05:13:36;;;;;;;23.40;15.40;;;;;;;2.68;100.00;99556.72;5047120;28;20229;-79
2024/03/03 05:16:03;;;;;;;25.13;15.60;;;;;;;2.69;100.00;99545.25;5052845;28;20213;-79
2024/03/03 05:18:29;;;;;;;26.03;15.77;;;;;;;2.70;100.00;99546.09;5052713;28;20201;-79
2024/03/03 05:20:56;;;;;;;27.50;17.40;;;;;;;2.71;100.00;99553.91;5056491;28;20218;-80
2024/03/03 05:23:22;;;;;;;26.37;16.27;;;;;;;2.69;100.00;99547.88;5053856;28;20720;-79
2024/03/03 05:25:49;;;;;;;27.93;16.40;;;;;;;2.69;100.00;99550.50;5053423;28;20221;-79
2024/03/03 05:28:15;;;;;;;28.00;16.90;;;;;;;2.68;100.00;99545.38;5047829;28;20208;-80
2024/03/03 05:30:43;;;;;;;27.57;16.10;;;;;;;2.68;100.00;99548.00;5052814;28;20241;-79
2024/03/03 05:33:11;;;;;;;29.40;17.17;;;;;;;2.68;100.00;99548.00;5052342;28;20613;-80
2024/03/03 05:35:38;;;;;;;30.07;17.03;;;;;;;2.67;100.00;99552.41;5050975;28;20216;-79
2024/03/03 05:38:05;;;;;;;30.07;17.30;;;;;;;2.66;100.00;99544.59;5049543;28;20216;-79
2024/03/03 05:40:31;;;;;;;31.40;16.80;;;;;;;2.65;100.00;99546.34;5050805;28;20202;-79
2024/03/03 05:42:58;;;;;;;28.43;15.63;;;;;;;2.64;100.00;99547.28;5051484;28;20244;-79
2024/03/03 05:45:25;;;;;;;28.00;16.50;;;;;;;2.65;100.00;99548.13;5049313;28;20210;-79
2024/03/03 05:47:54;;;;;;;27.23;16.83;;;;;;;2.64;100.00;99556.94;5050703;28;20206;-78
2024/03/03 05:50:20;;;;;;;33.33;17.73;;;;;;;2.63;100.00;99557.88;5055813;28;20206;-79
2024/03/03 05:52:47;;;;;;;24.93;15.33;;;;;;;2.57;100.00;99558.16;5053779;28;20210;-79
2024/03/03 05:55:13;;;;;;;25.03;15.23;;;;;;;2.52;100.00;99558.38;5049246;28;20226;-79
2024/03/03 05:57:40;;;;;;;24.33;15.27;;;;;;;2.48;100.00;99562.09;5052471;28;20205;-79
2024/03/03 06:00:08;;;;;;;23.37;15.23;;;;;;;2.46;100.00;99556.06;5053145;28;20209;-79
2024/03/03 06:02:35;;;;;;;24.73;14.60;;;;;;;2.45;100.00;99564.84;5051261;28;20197;-79
2024/03/03 06:05:03;;;;;;;28.60;15.90;;;;;;;2.44;100.00;99565.78;5051687;28;20225;-80
2024/03/03 06:07:29;;;;;;;29.43;16.80;;;;;;;2.42;100.00;99552.72;5050330;28;20198;-79
2024/03/03 06:09:56;;;;;;;27.27;15.93;;;;;;;2.42;100.00;99557.97;5050290;28;20582;-79
2024/03/03 06:12:22;;;;;;;28.63;16.57;;;;;;;2.43;100.00;99561.44;5055360;28;20202;-79
2024/03/03 06:14:49;;;;;;;23.30;15.40;;;;;;;2.41;100.00;99558.88;5050307;28;20225;-80
2024/03/03 06:17:15;;;;;;;26.60;16.17;;;;;;;2.41;100.00;99563.28;5048330;28;20628;-80
2024/03/03 06:19:42;;;;;;;29.87;15.53;;;;;;;2.39;100.00;99560.72;5052201;28;20231;-80
2024/03/03 06:22:10;;;;;;;28.53;17.03;;;;;;;2.40;100.00;99558.97;5051026;28;20201;-79
2024/03/03 06:24:36;;;;;;;27.37;16.70;;;;;;;2.39;100.00;99563.38;5048786;28;20230;-79
2024/03/03 06:27:03;;;;;;;28.93;18.33;;;;;;;2.41;100.00;99565.91;5045999;28;20208;-79
2024/03/03 06:29:29;;;;;;;29.80;17.40;;;;;;;2.42;100.00;99572.88;5045874;28;20206;-79
2024/03/03 06:31:56;;;;;;;31.37;20.73;;;;;;;2.44;100.00;99573.66;5050375;28;20210;-79
2024/03/03 06:34:22;;;;;;;32.80;19.40;;;;;;;2.44;100.00;99582.41;5046941;28;20225;-78
2024/03/03 06:36:49;;;;;;;37.80;20.87;;;;;;;2.46;100.00;99582.31;5047065;28;20216;-79
2024/03/03 06:39:18;;;;;;;41.33;23.03;;;;;;;2.46;100.00;99574.44;5049473;28;20194;-79
2024/03/03 06:41:44;;;;;;;38.37;21.67;;;;;;;2.44;100.00;99577.13;5051830;28;20700;-79
2024/03/03 06:44:12;;;;;;;31.43;18.80;;;;;;;2.40;100.00;99579.97;5053763;28;20222;-78
2024/03/03 06:46:43;;;;;;;26.90;17.33;;;;;;;2.33;100.00;99586.47;5053346;28;20220;-79
2024/03/03 06:49:09;;;;;;;30.27;17.90;;;;;;;2.30;100.00;99586.59;5048413;28;20213;-79
2024/03/03 06:51:36;;;;;;;31.63;18.50;;;;;;;2.28;100.00;99584.03;5050851;28;20209;-79
2024/03/03 06:54:02;;;;;;;38.33;19.87;;;;;;;2.28;100.00;99586.66;5054878;28;20232;-80
2024/03/03 06:56:30;;;;;;;33.30;19.77;;;;;;;2.32;100.00;99587.38;5048828;28;20788;-79
2024/03/03 06:58:56;;;;;;;36.67;20.00;;;;;;;2.35;100.00;99589.84;5050053;28;20205;-79
2024/03/03 07:01:23;;;;;;;37.87;20.90;;;;;;;2.37;100.00;99590.63;5048631;28;20289;-80
2024/03/03 07:06:36;;;;;;;31.00;19.03;;;;;;;2.46;100.00;99587.59;5049855;28;20271;-79
2024/03/03 07:09:04;;;;;;;36.93;19.03;;;;;;;2.49;100.00;99576.94;5047259;28;20215;-79
2024/03/03 07:11:32;;;;;;;33.47;19.43;;;;;;;2.53;100.00;99572.34;5043008;28;20288;-80
2024/03/03 07:13:58;;;;;;;35.67;20.30;;;;;;;2.56;100.00;99565.19;5049261;28;20226;-80
2024/03/03 07:16:24;;;;;;;36.17;20.67;;;;;;;2.59;100.00;99572.94;5047365;28;20209;-80
2024/03/03 07:18:51;;;;;;;40.50;21.47;;;;;;;2.63;100.00;99582.38;5046420;28;20206;-80
2024/03/03 07:21:17;;;;;;;40.30;21.17;;;;;;;2.67;100.00;99569.94;5050398;28;20220;-79
2024/03/03 07:23:44;;;;;;;47.53;24.17;;;;;;;2.73;100.00;99573.09;5050370;28;20256;-79
2024/03/03 07:26:10;;;;;;;43.93;22.43;;;;;;;2.78;100.00;99575.53;5050476;28;20202;-79
2024/03/03 07:28:38;;;;;;;46.33;23.30;;;;;;;2.83;100.00;99572.69;5047093;28;20585;-80
2024/03/03 07:31:05;;;;;;;56.77;24.83;;;;;;;2.88;100.00;99573.28;5050731;28;20551;-80
2024/03/03 07:33:31;;;;;;;49.60;25.73;;;;;;;2.94;100.00;99565.94;5047866;28;20237;-80
2024/03/03 07:35:58;;;;;;;52.97;25.23;;;;;;;3.03;100.00;99567.28;5052013;28;20202;-80
2024/03/03 07:38:24;;;;;;;55.70;25.67;;;;;;;3.10;100.00;99566.91;5047079;28;20206;-80
2024/03/03 07:40:50;;;;;;;57.17;26.43;;;;;;;3.20;100.00;99566.44;5047781;28;20966;-80
2024/03/03 07:43:17;;;;;;;54.80;26.30;;;;;;;3.28;100.00;99554.59;5053729;28;20607;-79
2024/03/03 07:45:45;;;;;;;62.13;28.93;;;;;;;3.41;100.00;99558.28;5049580;28;20201;-80
2024/03/03 07:48:11;;;;;;;65.90;28.90;;;;;;;3.55;100.00;99556.75;5042832;28;20655;-79
2024/03/03 07:50:38;;;;;;;68.10;28.63;;;;;;;3.69;100.00;99562.13;5063200;28;20322;-79
2024/03/03 07:53:05;;;;;;;70.10;30.70;;;;;;;3.81;100.00;99548.31;5047919;28;20232;-80
2024/03/03 07:55:31;;;;;;;68.07;30.77;;;;;;;3.96;100.00;99557.16;5047731;28;20282;-80
2024/03/03 07:57:58;;;;;;;68.43;30.47;;;;;;;4.13;100.00;99557.09;5055275;28;20205;-79
2024/03/03 08:00:26;;;;;;;70.93;30.27;;;;;;;4.25;100.00;99552.97;5057237;28;20213;-80
2024/03/03 08:02:54;;;;;;;76.87;31.03;;;;;;;4.35;100.00;99567.34;5052392;28;20799;-79
2024/03/03 08:05:20;;;;;;;70.03;32.00;;;;;;;4.46;100.00;99568.47;5057991;28;20204;-79
2024/03/03 08:07:47;;;;;;;80.50;33.07;;;;;;;4.58;100.00;99561.66;5053774;28;20210;-79
2024/03/03 08:10:13;;;;;;;76.60;32.47;;;;;;;4.71;100.00;99569.72;5051126;28;20201;-80
2024/03/03 08:12:40;;;;;;;78.43;31.57;;;;;;;4.78;100.00;99568.44;5042864;28;20213;-79
2024/03/03 08:15:07;;;;;;;73.80;31.53;;;;;;;4.83;100.00;99564.59;5043432;28;20801;-80
2024/03/03 08:17:33;;;;;;;76.20;32.03;;;;;;;4.90;100.00;99567.72;5052308;28;20204;-80
2024/03/03 08:20:01;;;;;;;69.07;31.90;;;;;;;4.98;100.00;99567.31;5047522;28;20214;-79
2024/03/03 08:22:27;;;;;;;70.20;30.23;;;;;;;5.07;100.00;99564.13;5050536;28;20202;-79
2024/03/03 08:24:54;;;;;;;70.87;31.00;;;;;;;5.19;100.00;99566.91;5046666;28;20236;-79
2024/03/03 08:27:21;;;;;;;72.83;31.13;;;;;;;5.32;100.00;99564.41;5049414;28;20206;-80
2024/03/03 08:29:47;;;;;;;69.67;30.50;;;;;;;5.43;100.00;99567.22;5043684;28;20225;-80
2024/03/03 08:32:14;;;;;;;60.93;28.23;;;;;;;5.57;100.00;99567.25;5047857;28;20201;-79
2024/03/03 08:34:40;;;;;;;69.27;29.90;;;;;;;5.61;100.00;99567.94;5051703;28;20681;-80
2024/03/03 08:37:08;;;;;;;56.50;29.47;;;;;;;5.71;100.00;99562.94;5049710;28;20201;-80
2024/03/03 08:39:35;;;;;;;58.60;28.33;;;;;;;5.72;100.00;99560.22;5048902;28;20210;-81
2024/03/03 08:42:02;;;;;;;60.33;28.47;;;;;;;5.78;100.00;99566.91;5049328;28;20201;-80
2024/03/03 08:44:28;;;;;;;62.27;29.13;;;;;;;5.88;100.00;99568.94;5046225;28;20241;-80
2024/03/03 08:46:55;;;;;;;61.40;29.30;;;;;;;6.01;100.00;99579.59;5050862;28;20734;-80
2024/03/03 08:49:21;;;;;;;50.70;26.87;;;;;;;6.12;100.00;99578.91;5050915;28;20259;-80
2024/03/03 08:51:48;;;;;;;50.80;27.33;;;;;;;6.24;100.00;99573.75;5054065;28;20224;-79
2024/03/03 08:54:15;;;;;;;53.83;28.07;;;;;;;6.31;100.00;99573.34;5048009;28;20839;-79
2024/03/03 08:56:43;;;;;;;60.53;29.90;;;;;;;6.38;100.00;99572.88;5059064;28;20221;-80
2024/03/03 08:59:09;;;;;;;62.20;29.33;;;;;;;6.42;100.00;99577.03;5054124;28;20728;-80
2024/03/03 09:01:37;;;;;;;54.80;28.70;;;;;;;6.48;100.00;99566.03;5046552;28;20325;-80
2024/03/03 09:04:04;;;;;;;58.13;29.27;;;;;;;6.56;100.00;99574.34;5046871;28;20221;-80
2024/03/03 09:06:31;;;;;;;57.87;29.33;;;;;;;6.66;100.00;99569.31;5053439;28;20677;-80
2024/03/03 09:08:57;;;;;;;55.63;29.90;;;;;;;6.73;100.00;99567.13;5059083;28;20201;-80
2024/03/03 09:11:25;;;;;;;58.93;29.43;;;;;;;6.87;100.00;99556.47;5053040;28;20206;-79
2024/03/03 09:13:55;;;;;;;63.60;31.07;;;;;;;7.00;100.00;99560.00;5059759;28;20736;-79
2024/03/03 09:16:21;;;;;;;57.00;29.07;;;;;;;7.10;100.00;99547.88;5053495;28;20209;-79
2024/03/03 09:18:49;;;;;;;52.20;29.17;;;;;;;7.23;100.00;99553.19;5054602;28;20209;-79
2024/03/03 09:21:15;;;;;;;60.33;31.20;;;;;;;7.31;100.00;99554.38;5057112;28;20201;-80
2024/03/03 09:23:42;;;;;;;56.87;30.03;;;;;;;7.43;100.00;99558.00;5051393;28;20234;-80
2024/03/03 09:26:08;;;;;;;68.83;33.70;;;;;;;7.57;100.00;99555.25;5052645;28;20205;-80
2024/03/03 09:28:36;;;;;;;65.80;32.60;;;;;;;7.66;100.00;99565.25;5047477;28;20209;-81
2024/03/03 09:31:04;;;;;;;65.23;32.73;;;;;;;7.72;100.00;99557.78;5049830;28;20206;-80
2024/03/03 09:33:31;;;;;;;62.13;30.93;;;;;;;7.80;100.00;99553.69;5048052;28;20807;-80
2024/03/03 09:35:57;;;;;;;64.30;34.13;;;;;;;7.89;100.00;99555.69;5050256;28;20249;-80
2024/03/03 09:38:24;;;;;;;74.00;35.97;;;;;;;7.94;100.00;99548.25;5051715;28;20198;-79
2024/03/03 09:40:52;;;;;;;71.67;36.47;;;;;;;7.93;100.00;99537.75;5051281;28;20228;-79
2024/03/03 09:43:19;;;;;;;68.97;35.87;;;;;;;7.95;100.00;99533.19;5053519;28;20222;-80
2024/03/03 09:45:48;;;;;;;73.07;36.10;;;;;;;8.01;100.00;99540.72;5051729;28;20237;-81
2024/03/03 09:48:14;;;;;;;68.27;36.20;;;;;;;8.11;100.00;99539.13;5054417;28;20210;-80
2024/03/03 09:50:41;;;;;;;64.03;35.60;;;;;;;8.24;100.00;99539.94;5052044;28;20807;-81
2024/03/03 09:53:08;;;;;;;64.43;33.33;;;;;;;8.33;100.00;99527.88;5054597;28;20209;-80
2024/03/03 09:55:37;;;;;;;61.80;32.83;;;;;;;8.34;100.00;99530.41;5064737;28;20225;-81
2024/03/03 09:58:04;;;;;;;63.03;32.30;;;;;;;8.41;100.00;99524.66;5081759;28;20817;-82
2024/03/03 10:00:31;;;;;;;58.30;32.87;;;;;;;8.51;100.00;99521.22;5077312;28;20205;-81
2024/03/03 10:03:01;;;;;;;55.17;30.40;;;;;;;8.60;100.00;99522.34;5072332;28;20199;-82
2024/03/03 10:05:30;;;;;;;56.70;30.53;;;;;;;8.65;100.00;99522.88;5065338;28;20205;-82
2024/03/03 10:08:02;;;;;;;56.50;30.00;;;;;;;8.72;100.00;99518.81;5058884;28;20205;-81
2024/03/03 10:10:33;;;;;;;54.57;31.53;;;;;;;8.80;100.00;99519.06;5062583;28;20232;-81
2024/03/03 10:13:03;;;;;;;55.53;30.80;;;;;;;8.86;100.00;99523.94;5071465;28;20309;-81
2024/03/03 10:15:30;;;;;;;51.07;29.93;;;;;;;8.93;100.00;99527.00;5067816;28;20224;-80
2024/03/03 10:18:02;;;;;;;53.17;30.07;;;;;;;9.00;100.00;99522.91;5059409;28;20205;-82
2024/03/03 10:20:29;;;;;;;53.57;29.87;;;;;;;9.06;100.00;99522.47;5059002;28;20225;-82
2024/03/03 10:22:55;;;;;;;48.83;28.00;;;;;;;9.18;100.00;99526.00;5060405;28;20208;-81
2024/03/03 10:25:24;;;;;;;46.20;27.37;;;;;;;9.30;100.00;99525.94;5058922;28;20217;-80
2024/03/03 10:27:51;;;;;;;49.90;28.87;;;;;;;9.36;100.00;99527.25;5070003;28;20209;-81
2024/03/03 10:30:22;;;;;;;50.10;28.40;;;;;;;9.44;100.00;99530.19;5040454;28;20207;-82
2024/03/03 10:32:49;;;;;;;49.60;28.33;;;;;;;9.52;100.00;99529.59;5069037;28;20632;-81
2024/03/03 10:35:19;;;;;;;47.93;29.43;;;;;;;9.56;100.00;99520.41;5072303;28;20224;-81
2024/03/03 10:37:53;;;;;;;52.27;28.80;;;;;;;9.70;100.00;99517.53;5079125;28;20200;-80
2024/03/03 10:40:20;;;;;;;51.63;29.37;;;;;;;9.79;100.00;99521.31;5080308;28;20186;-82
2024/03/03 10:42:47;;;;;;;47.70;28.60;;;;;;;9.98;100.00;99529.53;5068907;28;20222;-81
2024/03/03 10:45:13;;;;;;;47.50;27.90;;;;;;;10.08;100.00;99525.19;5058468;28;20700;-80
2024/03/03 10:47:40;;;;;;;47.60;28.10;;;;;;;10.14;100.00;99530.03;5058477;28;20209;-81
2024/03/03 10:50:08;;;;;;;48.70;27.13;;;;;;;10.14;98.35;99532.69;5048551;28;20206;-81
2024/03/03 10:52:38;;;;;;;48.03;27.27;;;;;;;10.16;97.20;99522.75;5053120;28;20200;-82
2024/03/03 10:55:06;;;;;;;43.60;27.00;;;;;;;10.16;97.59;99525.44;5065201;28;20225;-80
2024/03/03 10:57:35;;;;;;;44.87;27.40;;;;;;;10.21;98.02;99527.75;5057162;28;20200;-80
2024/03/03 11:00:04;;;;;;;47.33;27.07;;;;;;;10.25;97.97;99521.19;5065518;28;20244;-80
2024/03/03 11:02:31;;;;;;;44.30;27.57;;;;;;;10.35;97.57;99524.84;5064234;28;20434;-80
2024/03/03 11:04:58;;;;;;;48.03;28.10;;;;;;;10.49;97.34;99521.91;5075072;28;20248;-81
2024/03/03 11:07:27;;;;;;;46.73;28.50;;;;;;;10.53;95.45;99526.03;5061404;28;20221;-80
2024/03/03 11:09:56;;;;;;;48.43;28.37;;;;;;;10.60;95.22;99527.19;5056724;28;20206;-80
2024/03/03 11:12:26;;;;;;;45.03;28.27;;;;;;;10.67;95.28;99523.06;5056615;28;20220;-81
2024/03/03 11:14:56;;;;;;;46.93;27.93;;;;;;;10.72;94.26;99517.38;5051286;28;20235;-81
2024/03/03 11:17:26;;;;;;;47.50;27.47;;;;;;;10.73;94.20;99517.25;5048526;28;20292;-81